sensor_id;sensor_type;location;lat;lon;timestamp;pressure;altitude;pressure_sealevel;temperature;humidity
46876;BME280;32866;50.160;14.768;2023-03-20T00:03:36;99497.88;;;6.84;100.00
46876;BME280;32866;50.160;14.768;2023-03-20T00:06:02;99490.53;;;7.09;100.00
46876;BME280;32866;50.160;14.768;2023-03-20T00:08:27;99491.78;;;7.00;100.00
46876;BME280;32866;50.160;14.768;2023-03-20T00:10:53;99492.78;;;7.14;100.00
46876;BME280;32866;50.160;14.768;2023-03-20T00:13:23;99499.38;;;6.89;100.00
46876;BME280;32866;50.160;14.768;2023-03-20T00:15:50;99480.19;;;6.96;100.00
46876;BME280;32866;50.160;14.768;2023-03-20T00:18:20;99500.03;;;6.97;100.00
46876;BME280;32866;50.160;14.768;2023-03-20T00:20:48;99493.53;;;6.87;100.00
46876;BME280;32866;50.160;14.768;2023-03-20T00:23:14;99489.19;;;6.93;100.00
46876;BME280;32866;50.160;14.768;2023-03-20T00:25:42;99479.84;;;6.94;100.00
46876;BME280;32866;50.160;14.768;2023-03-20T00:28:34;99487.28;;;6.90;100.00
46876;BME280;32866;50.160;14.768;2023-03-20T00:31:01;99483.97;;;6.75;100.00
46876;BME280;32866;50.160;14.768;2023-03-20T00:33:26;99482.22;;;6.61;100.00
46876;BME280;32866;50.160;14.768;2023-03-20T00:35:52;99495.06;;;6.61;100.00
46876;BME280;32866;50.160;14.768;2023-03-20T00:38:17;99473.22;;;6.34;100.00
46876;BME280;32866;50.160;14.768;2023-03-20T00:40:43;99497.91;;;6.50;100.00
46876;BME280;32866;50.160;14.768;2023-03-20T00:43:10;99476.00;;;6.26;100.00
46876;BME280;32866;50.160;14.768;2023-03-20T00:45:37;99470.66;;;6.19;100.00
46876;BME280;32866;50.160;14.768;2023-03-20T00:48:02;99501.88;;;6.42;100.00
46876;BME280;32866;50.160;14.768;2023-03-20T00:50:29;99498.78;;;6.40;100.00
46876;BME280;32866;50.160;14.768;2023-03-20T00:52:56;99498.47;;;6.34;100.00
46876;BME280;32866;50.160;14.768;2023-03-20T00:55:23;99490.00;;;6.28;100.00
46876;BME280;32866;50.160;14.768;2023-03-20T00:57:57;99488.50;;;6.24;100.00
46876;BME280;32866;50.160;14.768;2023-03-20T01:00:36;99482.75;;;6.15;100.00
46876;BME280;32866;50.160;14.768;2023-03-20T01:03:20;99484.38;;;6.08;100.00
46876;BME280;32866;50.160;14.768;2023-03-20T01:05:46;99484.03;;;6.03;100.00
46876;BME280;32866;50.160;14.768;2023-03-20T01:08:14;99492.19;;;6.03;100.00
46876;BME280;32866;50.160;14.768;2023-03-20T01:10:40;99492.25;;;5.95;100.00
46876;BME280;32866;50.160;14.768;2023-03-20T01:13:14;99489.53;;;5.95;100.00
46876;BME280;32866;50.160;14.768;2023-03-20T01:15:41;99477.69;;;5.75;100.00
46876;BME280;32866;50.160;14.768;2023-03-20T01:18:11;99488.75;;;5.95;100.00
46876;BME280;32866;50.160;14.768;2023-03-20T01:20:37;99492.22;;;5.99;100.00
46876;BME280;32866;50.160;14.768;2023-03-20T01:23:03;99456.91;;;5.92;100.00
46876;BME280;32866;50.160;14.768;2023-03-20T01:25:29;99497.63;;;6.03;100.00
46876;BME280;32866;50.160;14.768;2023-03-20T01:27:54;99488.41;;;5.89;100.00
46876;BME280;32866;50.160;14.768;2023-03-20T01:30:24;99500.47;;;5.88;100.00
46876;BME280;32866;50.160;14.768;2023-03-20T01:32:51;99497.81;;;5.81;100.00
46876;BME280;32866;50.160;14.768;2023-03-20T01:35:17;99490.84;;;5.80;100.00
46876;BME280;32866;50.160;14.768;2023-03-20T01:37:44;99471.63;;;5.56;100.00
46876;BME280;32866;50.160;14.768;2023-03-20T01:40:22;99482.31;;;5.74;100.00
46876;BME280;32866;50.160;14.768;2023-03-20T01:42:51;99486.19;;;5.77;100.00
46876;BME280;32866;50.160;14.768;2023-03-20T01:45:20;99490.84;;;5.80;100.00
46876;BME280;32866;50.160;14.768;2023-03-20T01:47:46;99487.06;;;5.67;100.00
46876;BME280;32866;50.160;14.768;2023-03-20T01:52:48;99487.19;;;5.52;100.00
46876;BME280;32866;50.160;14.768;2023-03-20T01:55:14;99463.91;;;5.48;100.00
46876;BME280;32866;50.160;14.768;2023-03-20T01:57:40;99490.31;;;5.47;100.00
46876;BME280;32866;50.160;14.768;2023-03-20T02:00:10;99482.94;;;5.51;100.00
46876;BME280;32866;50.160;14.768;2023-03-20T02:02:40;99488.09;;;5.35;100.00
46876;BME280;32866;50.160;14.768;2023-03-20T02:05:09;99486.53;;;5.34;100.00
46876;BME280;32866;50.160;14.768;2023-03-20T02:07:37;99484.22;;;5.32;100.00
46876;BME280;32866;50.160;14.768;2023-03-20T02:10:11;99487.34;;;5.31;100.00
46876;BME280;32866;50.160;14.768;2023-03-20T02:12:37;99496.03;;;5.11;100.00
46876;BME280;32866;50.160;14.768;2023-03-20T02:15:04;99496.53;;;4.88;100.00
46876;BME280;32866;50.160;14.768;2023-03-20T02:17:30;99486.75;;;5.05;100.00
46876;BME280;32866;50.160;14.768;2023-03-20T02:22:47;99490.63;;;5.04;100.00
46876;BME280;32866;50.160;14.768;2023-03-20T02:28:16;99481.78;;;4.89;100.00
46876;BME280;32866;50.160;14.768;2023-03-20T02:50:56;99478.34;;;4.81;100.00
46876;BME280;32866;50.160;14.768;2023-03-20T02:54:03;99480.38;;;4.63;100.00
46876;BME280;32866;50.160;14.768;2023-03-20T02:56:36;99479.66;;;4.52;100.00
46876;BME280;32866;50.160;14.768;2023-03-20T02:59:29;99476.09;;;4.62;100.00
46876;BME280;32866;50.160;14.768;2023-03-20T03:02:19;99469.91;;;4.61;100.00
46876;BME280;32866;50.160;14.768;2023-03-20T03:04:52;99471.53;;;4.48;100.00
46876;BME280;32866;50.160;14.768;2023-03-20T03:07:22;99464.53;;;4.54;100.00
46876;BME280;32866;50.160;14.768;2023-03-20T03:09:55;99481.19;;;4.53;100.00
46876;BME280;32866;50.160;14.768;2023-03-20T03:12:28;99458.38;;;4.39;100.00
46876;BME280;32866;50.160;14.768;2023-03-20T03:15:01;99485.13;;;4.34;100.00
46876;BME280;32866;50.160;14.768;2023-03-20T03:17:31;99480.16;;;4.18;100.00
46876;BME280;32866;50.160;14.768;2023-03-20T03:20:02;99473.22;;;3.99;100.00
46876;BME280;32866;50.160;14.768;2023-03-20T03:22:30;99476.72;;;3.99;100.00
46876;BME280;32866;50.160;14.768;2023-03-20T03:24:58;99482.50;;;4.01;100.00
46876;BME280;32866;50.160;14.768;2023-03-20T03:27:28;99457.00;;;3.70;100.00
46876;BME280;32866;50.160;14.768;2023-03-20T03:30:02;99479.06;;;3.83;100.00
46876;BME280;32866;50.160;14.768;2023-03-20T03:32:45;99472.09;;;3.82;100.00
46876;BME280;32866;50.160;14.768;2023-03-20T03:35:17;99478.66;;;3.95;100.00
46876;BME280;32866;50.160;14.768;2023-03-20T03:37:58;99434.56;;;3.59;100.00
46876;BME280;32866;50.160;14.768;2023-03-20T03:43:07;99459.31;;;3.79;100.00
46876;BME280;32866;50.160;14.768;2023-03-20T03:46:01;99466.31;;;3.72;100.00
46876;BME280;32866;50.160;14.768;2023-03-20T03:48:34;99467.88;;;3.59;100.00
46876;BME280;32866;50.160;14.768;2023-03-20T03:51:07;99472.50;;;3.51;100.00
46876;BME280;32866;50.160;14.768;2023-03-20T03:53:37;99465.16;;;3.34;100.00
46876;BME280;32866;50.160;14.768;2023-03-20T03:56:08;99472.50;;;3.30;100.00
46876;BME280;32866;50.160;14.768;2023-03-20T03:58:38;99481.78;;;3.43;100.00
46876;BME280;32866;50.160;14.768;2023-03-20T04:01:06;99480.66;;;3.33;100.00
46876;BME280;32866;50.160;14.768;2023-03-20T04:03:38;99481.00;;;3.28;100.00
46876;BME280;32866;50.160;14.768;2023-03-20T04:06:05;99447.72;;;3.21;100.00
46876;BME280;32866;50.160;14.768;2023-03-20T04:08:32;99479.44;;;3.67;100.00
46876;BME280;32866;50.160;14.768;2023-03-20T04:10:58;99488.78;;;3.62;100.00
46876;BME280;32866;50.160;14.768;2023-03-20T04:13:23;99482.16;;;3.63;100.00
46876;BME280;32866;50.160;14.768;2023-03-20T04:15:49;99475.19;;;3.91;100.00
46876;BME280;32866;50.160;14.768;2023-03-20T04:18:16;99482.03;;;4.32;100.00
46876;BME280;32866;50.160;14.768;2023-03-20T04:20:44;99477.81;;;4.20;100.00
46876;BME280;32866;50.160;14.768;2023-03-20T04:23:10;99453.84;;;4.07;100.00
46876;BME280;32866;50.160;14.768;2023-03-20T04:25:35;99458.47;;;4.14;100.00
46876;BME280;32866;50.160;14.768;2023-03-20T04:28:01;99486.63;;;4.56;100.00
46876;BME280;32866;50.160;14.768;2023-03-20T04:30:26;99454.13;;;4.38;100.00
46876;BME280;32866;50.160;14.768;2023-03-20T04:32:52;99445.91;;;4.53;100.00
46876;BME280;32866;50.160;14.768;2023-03-20T04:35:17;99477.97;;;4.79;100.00
46876;BME280;32866;50.160;14.768;2023-03-20T04:37:43;99440.44;;;4.60;100.00
46876;BME280;32866;50.160;14.768;2023-03-20T04:40:09;99480.19;;;4.95;100.00
46876;BME280;32866;50.160;14.768;2023-03-20T04:42:34;99488.66;;;5.08;100.00
46876;BME280;32866;50.160;14.768;2023-03-20T04:45:00;99486.28;;;5.14;100.00
46876;BME280;32866;50.160;14.768;2023-03-20T04:47:25;99483.19;;;5.15;100.00
46876;BME280;32866;50.160;14.768;2023-03-20T04:49:51;99491.34;;;5.15;100.00
46876;BME280;32866;50.160;14.768;2023-03-20T04:52:16;99487.44;;;5.16;100.00
46876;BME280;32866;50.160;14.768;2023-03-20T04:54:41;99486.66;;;5.19;100.00
46876;BME280;32866;50.160;14.768;2023-03-20T04:57:07;99494.38;;;5.25;100.00
46876;BME280;32866;50.160;14.768;2023-03-20T04:59:32;99500.53;;;5.32;100.00
46876;BME280;32866;50.160;14.768;2023-03-20T05:01:58;99504.28;;;5.49;100.00
46876;BME280;32866;50.160;14.768;2023-03-20T05:04:23;99500.28;;;5.65;100.00
46876;BME280;32866;50.160;14.768;2023-03-20T05:06:49;99465.06;;;5.50;100.00
46876;BME280;32866;50.160;14.768;2023-03-20T05:09:15;99500.19;;;5.75;100.00
46876;BME280;32866;50.160;14.768;2023-03-20T05:11:41;99471.53;;;5.67;100.00
46876;BME280;32866;50.160;14.768;2023-03-20T05:14:06;99503.50;;;5.98;100.00
46876;BME280;32866;50.160;14.768;2023-03-20T05:16:32;99510.00;;;6.11;100.00
46876;BME280;32866;50.160;14.768;2023-03-20T05:18:57;99505.53;;;6.28;100.00
46876;BME280;32866;50.160;14.768;2023-03-20T05:21:23;99512.69;;;6.49;100.00
46876;BME280;32866;50.160;14.768;2023-03-20T05:23:48;99519.72;;;6.46;100.00
46876;BME280;32866;50.160;14.768;2023-03-20T05:26:13;99511.06;;;6.55;100.00
46876;BME280;32866;50.160;14.768;2023-03-20T05:28:39;99491.16;;;6.27;100.00
46876;BME280;32866;50.160;14.768;2023-03-20T05:31:04;99487.34;;;6.21;100.00
46876;BME280;32866;50.160;14.768;2023-03-20T05:33:30;99508.97;;;6.36;100.00
46876;BME280;32866;50.160;14.768;2023-03-20T05:35:55;99488.88;;;6.22;100.00
46876;BME280;32866;50.160;14.768;2023-03-20T05:38:21;99496.28;;;6.22;100.00
46876;BME280;32866;50.160;14.768;2023-03-20T05:40:54;99521.69;;;6.46;100.00
46876;BME280;32866;50.160;14.768;2023-03-20T05:43:19;99506.66;;;6.34;100.00
46876;BME280;32866;50.160;14.768;2023-03-20T05:45:45;99522.53;;;6.74;100.00
46876;BME280;32866;50.160;14.768;2023-03-20T05:48:10;99523.59;;;6.80;100.00
46876;BME280;32866;50.160;14.768;2023-03-20T05:50:36;99526.88;;;6.98;100.00
46876;BME280;32866;50.160;14.768;2023-03-20T05:53:01;99512.19;;;6.92;100.00
46876;BME280;32866;50.160;14.768;2023-03-20T05:55:26;99488.19;;;6.80;100.00
46876;BME280;32866;50.160;14.768;2023-03-20T05:57:52;99524.13;;;6.98;100.00
46876;BME280;32866;50.160;14.768;2023-03-20T06:00:17;99515.25;;;6.94;100.00
46876;BME280;32866;50.160;14.768;2023-03-20T06:02:43;99536.94;;;7.01;100.00
46876;BME280;32866;50.160;14.768;2023-03-20T06:05:09;99511.78;;;6.90;100.00
46876;BME280;32866;50.160;14.768;2023-03-20T06:07:34;99528.41;;;6.99;100.00
46876;BME280;32866;50.160;14.768;2023-03-20T06:10:00;99536.19;;;7.01;100.00
46876;BME280;32866;50.160;14.768;2023-03-20T06:12:25;99517.75;;;6.81;100.00
46876;BME280;32866;50.160;14.768;2023-03-20T06:14:50;99515.47;;;6.76;100.00
46876;BME280;32866;50.160;14.768;2023-03-20T06:17:16;99549.34;;;7.06;100.00
46876;BME280;32866;50.160;14.768;2023-03-20T06:19:41;99532.72;;;6.97;100.00
46876;BME280;32866;50.160;14.768;2023-03-20T06:22:06;99530.69;;;7.04;100.00
46876;BME280;32866;50.160;14.768;2023-03-20T06:24:32;99555.97;;;7.32;100.00
46876;BME280;32866;50.160;14.768;2023-03-20T06:26:58;99535.84;;;7.26;100.00
46876;BME280;32866;50.160;14.768;2023-03-20T06:29:23;99554.03;;;7.33;100.00
46876;BME280;32866;50.160;14.768;2023-03-20T06:31:49;99543.50;;;7.08;100.00
46876;BME280;32866;50.160;14.768;2023-03-20T06:34:15;99545.81;;;7.09;100.00
46876;BME280;32866;50.160;14.768;2023-03-20T06:36:40;99573.19;;;7.29;100.00
46876;BME280;32866;50.160;14.768;2023-03-20T06:39:06;99570.06;;;7.31;100.00
46876;BME280;32866;50.160;14.768;2023-03-20T06:41:32;99582.84;;;7.34;100.00
46876;BME280;32866;50.160;14.768;2023-03-20T06:43:58;99546.94;;;7.12;100.00
46876;BME280;32866;50.160;14.768;2023-03-20T06:46:24;99557.94;;;7.04;100.00
46876;BME280;32866;50.160;14.768;2023-03-20T06:48:49;99577.38;;;7.34;100.00
46876;BME280;32866;50.160;14.768;2023-03-20T06:51:14;99556.91;;;7.22;100.00
46876;BME280;32866;50.160;14.768;2023-03-20T06:53:40;99556.38;;;7.03;100.00
46876;BME280;32866;50.160;14.768;2023-03-20T06:56:09;99587.53;;;7.33;100.00
46876;BME280;32866;50.160;14.768;2023-03-20T06:58:34;99563.03;;;7.30;100.00
46876;BME280;32866;50.160;14.768;2023-03-20T07:01:00;99592.78;;;7.48;100.00
46876;BME280;32866;50.160;14.768;2023-03-20T07:03:25;99563.41;;;7.32;100.00
46876;BME280;32866;50.160;14.768;2023-03-20T07:05:51;99596.16;;;7.55;100.00
46876;BME280;32866;50.160;14.768;2023-03-20T07:08:16;99591.53;;;7.52;100.00
46876;BME280;32866;50.160;14.768;2023-03-20T07:10:42;99597.78;;;7.53;100.00
46876;BME280;32866;50.160;14.768;2023-03-20T07:13:07;99600.16;;;7.51;100.00
46876;BME280;32866;50.160;14.768;2023-03-20T07:15:34;99590.34;;;7.80;100.00
46876;BME280;32866;50.160;14.768;2023-03-20T07:18:00;99602.19;;;7.70;100.00
46876;BME280;32866;50.160;14.768;2023-03-20T07:20:25;99591.59;;;7.49;100.00
46876;BME280;32866;50.160;14.768;2023-03-20T07:22:50;99575.97;;;7.53;100.00
46876;BME280;32866;50.160;14.768;2023-03-20T07:25:16;99602.44;;;7.79;100.00
46876;BME280;32866;50.160;14.768;2023-03-20T07:27:42;99612.16;;;7.80;100.00
46876;BME280;32866;50.160;14.768;2023-03-20T07:30:14;99610.56;;;7.83;100.00
46876;BME280;32866;50.160;14.768;2023-03-20T07:32:39;99612.72;;;7.95;100.00
46876;BME280;32866;50.160;14.768;2023-03-20T07:35:05;99578.00;;;7.72;100.00
46876;BME280;32866;50.160;14.768;2023-03-20T07:37:31;99624.72;;;8.02;100.00
46876;BME280;32866;50.160;14.768;2023-03-20T07:39:56;99614.97;;;8.01;100.00
46876;BME280;32866;50.160;14.768;2023-03-20T07:42:22;99613.72;;;8.29;100.00
46876;BME280;32866;50.160;14.768;2023-03-20T07:44:47;99613.72;;;8.29;100.00
46876;BME280;32866;50.160;14.768;2023-03-20T07:47:12;99604.72;;;8.08;100.00
46876;BME280;32866;50.160;14.768;2023-03-20T07:49:38;99606.72;;;8.28;100.00
46876;BME280;32866;50.160;14.768;2023-03-20T07:52:03;99613.44;;;8.47;100.00
46876;BME280;32866;50.160;14.768;2023-03-20T07:54:29;99609.50;;;8.48;100.00
46876;BME280;32866;50.160;14.768;2023-03-20T07:56:54;99616.31;;;8.36;100.00
46876;BME280;32866;50.160;14.768;2023-03-20T07:59:19;99596.25;;;8.23;100.00
46876;BME280;32866;50.160;14.768;2023-03-20T08:01:45;99620.00;;;8.26;100.00
46876;BME280;32866;50.160;14.768;2023-03-20T08:04:10;99600.63;;;8.20;100.00
46876;BME280;32866;50.160;14.768;2023-03-20T08:06:36;99596.84;;;8.34;100.00
46876;BME280;32866;50.160;14.768;2023-03-20T08:09:04;99609.88;;;8.50;100.00
46876;BME280;32866;50.160;14.768;2023-03-20T08:11:29;99604.28;;;8.33;100.00
46876;BME280;32866;50.160;14.768;2023-03-20T08:13:54;99614.84;;;8.55;100.00
46876;BME280;32866;50.160;14.768;2023-03-20T08:16:20;99615.38;;;8.70;100.00
46876;BME280;32866;50.160;14.768;2023-03-20T08:18:45;99592.19;;;8.58;100.00
46876;BME280;32866;50.160;14.768;2023-03-20T08:21:10;99586.22;;;8.83;100.00
46876;BME280;32866;50.160;14.768;2023-03-20T08:23:36;99583.66;;;9.13;100.00
46876;BME280;32866;50.160;14.768;2023-03-20T08:26:01;99579.53;;;9.41;100.00
46876;BME280;32866;50.160;14.768;2023-03-20T08:28:27;99620.78;;;9.83;100.00
46876;BME280;32866;50.160;14.768;2023-03-20T08:30:52;99619.53;;;10.04;100.00
46876;BME280;32866;50.160;14.768;2023-03-20T08:33:18;99627.63;;;10.40;100.00
46876;BME280;32866;50.160;14.768;2023-03-20T08:35:43;99626.44;;;10.42;100.00
46876;BME280;32866;50.160;14.768;2023-03-20T08:38:18;99619.44;;;11.12;100.00
46876;BME280;32866;50.160;14.768;2023-03-20T08:40:44;99598.59;;;12.04;100.00
46876;BME280;32866;50.160;14.768;2023-03-20T08:43:09;99604.13;;;12.61;100.00
46876;BME280;32866;50.160;14.768;2023-03-20T08:45:35;99635.31;;;12.46;100.00
46876;BME280;32866;50.160;14.768;2023-03-20T08:48:00;99619.50;;;12.02;100.00
46876;BME280;32866;50.160;14.768;2023-03-20T08:50:25;99628.59;;;11.47;100.00
46876;BME280;32866;50.160;14.768;2023-03-20T08:52:51;99630.59;;;11.60;100.00
46876;BME280;32866;50.160;14.768;2023-03-20T08:55:17;99632.56;;;11.72;100.00
46876;BME280;32866;50.160;14.768;2023-03-20T08:57:42;99627.19;;;11.68;100.00
46876;BME280;32866;50.160;14.768;2023-03-20T09:00:10;99629.13;;;11.68;100.00
46876;BME280;32866;50.160;14.768;2023-03-20T09:02:37;99618.72;;;11.37;100.00
46876;BME280;32866;50.160;14.768;2023-03-20T09:05:02;99597.31;;;11.32;100.00
46876;BME280;32866;50.160;14.768;2023-03-20T09:07:28;99615.53;;;12.03;100.00
46876;BME280;32866;50.160;14.768;2023-03-20T09:09:53;99597.31;;;11.96;100.00
46876;BME280;32866;50.160;14.768;2023-03-20T09:12:18;99603.88;;;12.47;100.00
46876;BME280;32866;50.160;14.768;2023-03-20T09:14:44;99615.22;;;12.71;100.00
46876;BME280;32866;50.160;14.768;2023-03-20T09:17:09;99598.72;;;12.71;100.00
46876;BME280;32866;50.160;14.768;2023-03-20T09:19:35;99606.75;;;12.65;100.00
46876;BME280;32866;50.160;14.768;2023-03-20T09:22:03;99621.59;;;12.90;100.00
46876;BME280;32866;50.160;14.768;2023-03-20T09:24:29;99619.28;;;13.64;100.00
46876;BME280;32866;50.160;14.768;2023-03-20T09:26:55;99622.53;;;13.81;100.00
46876;BME280;32866;50.160;14.768;2023-03-20T09:29:20;99614.50;;;13.55;100.00
46876;BME280;32866;50.160;14.768;2023-03-20T09:31:46;99609.09;;;13.83;100.00
46876;BME280;32866;50.160;14.768;2023-03-20T09:34:11;99589.53;;;13.99;100.00
46876;BME280;32866;50.160;14.768;2023-03-20T09:36:36;99611.38;;;14.62;100.00
46876;BME280;32866;50.160;14.768;2023-03-20T09:39:02;99619.59;;;14.25;100.00
46876;BME280;32866;50.160;14.768;2023-03-20T09:41:28;99623.41;;;13.68;100.00
46876;BME280;32866;50.160;14.768;2023-03-20T09:44:11;99620.88;;;14.70;100.00
46876;BME280;32866;50.160;14.768;2023-03-20T09:47:01;99612.94;;;16.00;100.00
46876;BME280;32866;50.160;14.768;2023-03-20T09:52:17;99610.63;;;17.81;100.00
46876;BME280;32866;50.160;14.768;2023-03-20T09:54:49;99607.56;;;17.79;100.00
46876;BME280;32866;50.160;14.768;2023-03-20T09:57:26;99610.22;;;18.70;100.00
46876;BME280;32866;50.160;14.768;2023-03-20T09:59:54;99605.28;;;18.33;100.00
46876;BME280;32866;50.160;14.768;2023-03-20T10:05:25;99606.38;;;19.84;100.00
46876;BME280;32866;50.160;14.768;2023-03-20T10:07:53;99600.09;;;20.55;93.44
46876;BME280;32866;50.160;14.768;2023-03-20T10:10:26;99603.06;;;20.34;85.43
46876;BME280;32866;50.160;14.768;2023-03-20T10:13:10;99592.50;;;20.50;84.34
46876;BME280;32866;50.160;14.768;2023-03-20T10:15:45;99588.03;;;21.31;81.20
46876;BME280;32866;50.160;14.768;2023-03-20T10:18:25;99589.53;;;20.76;80.02
46876;BME280;32866;50.160;14.768;2023-03-20T10:20:59;99582.47;;;21.37;77.72
46876;BME280;32866;50.160;14.768;2023-03-20T10:25:57;99587.63;;;22.14;76.04
46876;BME280;32866;50.160;14.768;2023-03-20T10:28:31;99570.19;;;22.91;67.09
46876;BME280;32866;50.160;14.768;2023-03-20T10:34:03;99575.59;;;21.72;60.54
46876;BME280;32866;50.160;14.768;2023-03-20T10:39:09;99572.06;;;21.55;60.02
46876;BME280;32866;50.160;14.768;2023-03-20T10:41:39;99575.13;;;22.27;58.06
46876;BME280;32866;50.160;14.768;2023-03-20T10:44:14;99562.28;;;23.56;52.38
46876;BME280;32866;50.160;14.768;2023-03-20T10:46:43;99563.50;;;22.70;52.88
46876;BME280;32866;50.160;14.768;2023-03-20T10:52:37;99562.63;;;23.47;51.09
46876;BME280;32866;50.160;14.768;2023-03-20T10:55:07;99556.69;;;22.95;51.41
46876;BME280;32866;50.160;14.768;2023-03-20T10:57:38;99551.97;;;24.52;50.87
46876;BME280;32866;50.160;14.768;2023-03-20T11:00:07;99551.44;;;23.22;49.16
46876;BME280;32866;50.160;14.768;2023-03-20T11:02:37;99557.03;;;23.71;48.60
46876;BME280;32866;50.160;14.768;2023-03-20T11:05:23;99554.75;;;23.95;49.97
46876;BME280;32866;50.160;14.768;2023-03-20T11:07:51;99555.94;;;24.62;47.64
46876;BME280;32866;50.160;14.768;2023-03-20T11:10:25;99550.41;;;24.37;45.48
46876;BME280;32866;50.160;14.768;2023-03-20T11:12:51;99548.69;;;24.86;45.75
46876;BME280;32866;50.160;14.768;2023-03-20T11:15:22;99541.41;;;24.25;45.92
46876;BME280;32866;50.160;14.768;2023-03-20T11:18:05;99546.13;;;25.47;44.56
46876;BME280;32866;50.160;14.768;2023-03-20T11:20:55;99542.00;;;24.56;44.31
46876;BME280;32866;50.160;14.768;2023-03-20T11:23:31;99539.03;;;25.46;44.20
46876;BME280;32866;50.160;14.768;2023-03-20T11:28:32;99531.56;;;25.88;42.29
46876;BME280;32866;50.160;14.768;2023-03-20T11:31:24;99530.00;;;23.55;44.83
46876;BME280;32866;50.160;14.768;2023-03-20T11:36:39;99524.28;;;19.94;52.75
46876;BME280;32866;50.160;14.768;2023-03-20T11:41:50;99526.44;;;20.28;55.79
46876;BME280;32866;50.160;14.768;2023-03-20T11:44:35;99505.00;;;21.19;49.45
46876;BME280;32866;50.160;14.768;2023-03-20T11:47:14;99516.13;;;21.30;49.42
46876;BME280;32866;50.160;14.768;2023-03-20T11:49:48;99506.03;;;22.80;46.54
46876;BME280;32866;50.160;14.768;2023-03-20T11:52:23;99503.34;;;23.29;45.85
46876;BME280;32866;50.160;14.768;2023-03-20T11:54:51;99499.13;;;24.10;44.62
46876;BME280;32866;50.160;14.768;2023-03-20T11:57:27;99514.13;;;20.68;47.50
46876;BME280;32866;50.160;14.768;2023-03-20T11:59:54;99465.81;;;19.28;52.40
46876;BME280;32866;50.160;14.768;2023-03-20T12:02:22;99493.56;;;18.33;54.00
46876;BME280;32866;50.160;14.768;2023-03-20T12:04:49;99491.66;;;17.77;57.50
46876;BME280;32866;50.160;14.768;2023-03-20T12:09:56;99499.13;;;16.56;65.98
46876;BME280;32866;50.160;14.768;2023-03-20T12:15:00;99496.16;;;16.14;70.73
46876;BME280;32866;50.160;14.768;2023-03-20T12:19:58;99484.53;;;16.40;69.27
46876;BME280;32866;50.160;14.768;2023-03-20T12:22:30;99492.00;;;16.79;69.32
46876;BME280;32866;50.160;14.768;2023-03-20T12:28:05;99488.72;;;17.25;67.37
46876;BME280;32866;50.160;14.768;2023-03-20T12:36:19;99493.59;;;17.71;65.36
46876;BME280;32866;50.160;14.768;2023-03-20T12:38:49;99474.53;;;17.79;65.21
46876;BME280;32866;50.160;14.768;2023-03-20T12:41:18;99474.72;;;17.90;64.66
46876;BME280;32866;50.160;14.768;2023-03-20T12:44:02;99477.75;;;17.92;63.31
46876;BME280;32866;50.160;14.768;2023-03-20T12:49:42;99480.75;;;17.89;65.13
46876;BME280;32866;50.160;14.768;2023-03-20T12:57:36;99452.69;;;16.75;64.69
46876;BME280;32866;50.160;14.768;2023-03-20T13:00:19;99472.16;;;16.65;65.34
46876;BME280;32866;50.160;14.768;2023-03-20T13:03:05;99480.03;;;16.13;66.22
46876;BME280;32866;50.160;14.768;2023-03-20T13:05:41;99478.19;;;15.95;67.92
46876;BME280;32866;50.160;14.768;2023-03-20T13:10:59;99485.34;;;15.29;65.93
46876;BME280;32866;50.160;14.768;2023-03-20T13:13:49;99471.78;;;14.64;68.36
46876;BME280;32866;50.160;14.768;2023-03-20T13:16:41;99471.09;;;14.08;70.89
46876;BME280;32866;50.160;14.768;2023-03-20T13:19:26;99477.81;;;13.98;69.20
46876;BME280;32866;50.160;14.768;2023-03-20T13:22:05;99486.69;;;14.12;69.76
46876;BME280;32866;50.160;14.768;2023-03-20T13:24:40;99471.53;;;13.88;74.99
46876;BME280;32866;50.160;14.768;2023-03-20T13:32:29;99453.03;;;14.78;71.18
46876;BME280;32866;50.160;14.768;2023-03-20T13:37:50;99455.88;;;15.84;63.69
46876;BME280;32866;50.160;14.768;2023-03-20T13:40:22;99452.50;;;16.19;59.99
46876;BME280;32866;50.160;14.768;2023-03-20T13:42:59;99448.78;;;16.22;61.03
46876;BME280;32866;50.160;14.768;2023-03-20T13:45:41;99453.63;;;15.97;62.08
46876;BME280;32866;50.160;14.768;2023-03-20T14:04:46;99435.66;;;14.96;71.18
46876;BME280;32866;50.160;14.768;2023-03-20T14:07:33;99439.81;;;14.91;73.29
46876;BME280;32866;50.160;14.768;2023-03-20T14:12:55;99434.19;;;14.76;76.67
46876;BME280;32866;50.160;14.768;2023-03-20T14:15:24;99432.25;;;14.68;79.31
46876;BME280;32866;50.160;14.768;2023-03-20T14:17:51;99441.59;;;14.70;79.15
46876;BME280;32866;50.160;14.768;2023-03-20T14:20:59;99435.28;;;14.79;81.26
46876;BME280;32866;50.160;14.768;2023-03-20T14:23:32;99432.34;;;14.82;82.74
46876;BME280;32866;50.160;14.768;2023-03-20T14:25:58;99429.75;;;14.79;83.48
46876;BME280;32866;50.160;14.768;2023-03-20T14:28:27;99427.91;;;14.85;82.91
46876;BME280;32866;50.160;14.768;2023-03-20T14:31:22;99426.84;;;14.82;82.53
46876;BME280;32866;50.160;14.768;2023-03-20T14:34:00;99432.63;;;14.94;82.45
46876;BME280;32866;50.160;14.768;2023-03-20T14:39:24;99428.09;;;15.39;81.31
46876;BME280;32866;50.160;14.768;2023-03-20T14:50:35;99435.09;;;15.88;73.44
46876;BME280;32866;50.160;14.768;2023-03-20T14:53:13;99427.19;;;15.81;74.36
46876;BME280;32866;50.160;14.768;2023-03-20T15:01:22;99417.78;;;16.03;73.30
46876;BME280;32866;50.160;14.768;2023-03-20T15:03:51;99418.16;;;15.81;72.44
46876;BME280;32866;50.160;14.768;2023-03-20T15:06:19;99416.22;;;15.87;72.71
46876;BME280;32866;50.160;14.768;2023-03-20T15:08:59;99416.47;;;15.74;73.37
46876;BME280;32866;50.160;14.768;2023-03-20T15:11:28;99411.56;;;15.78;74.68